Flight Track Log - Related Links

Times and Time Zones

All times are in EDT time to prevent confusion due to time zone crossing. See the SKW6345 flight status page for this flight to view local times or setup timezone preferences in your user account.

Time Position Orientation Groundspeed Altitude Reporting Facility
EDT Latitude Longitude Course Direction KTS MPH feet Rate Location/Type
Thu 03:22:10 PM 45.8056 -111.2056 290° West 193 222 5,600  Level Salt Lake Center
Thu 03:23:12 PM 45.7803 -111.2867 246° West 241 277 7,500 1,935 Climbing Salt Lake Center
Thu 03:24:00 PM 45.7316 -111.5378 282° West  Level FlightAware Approximate
Thu 03:24:14 PM 45.7494 -111.3769 244° Southwest 245 282 9,600  Level Salt Lake Center
Thu 03:25:00 PM 45.7466 -111.6931 288° West  Level FlightAware Approximate
Thu 03:25:16 PM 45.7108 -111.4681 239° Southwest 259 298 11,500  Level Salt Lake Center
Thu 03:26:00 PM 45.7784 -111.8359 288° West  Level FlightAware Approximate
Thu 03:26:19 PM 45.6547 -111.5536 227° Southwest 286 329 13,200  Level Salt Lake Center
Thu 03:27:00 PM 45.8112 -111.9783 290° West  Level FlightAware Approximate
Thu 03:27:21 PM 45.5864 -111.6597 227° Southwest 301 346 15,400  Level Salt Lake Center
Thu 03:28:23 PM 45.5278 -111.7486 227° Southwest 307 353 17,300 1,258 Climbing Salt Lake Center
Thu 03:29:25 PM 45.4686 -111.8381 227° Southwest 309 356 18,000 919 Climbing Salt Lake Center
Thu 03:30:27 PM 45.4025 -111.9389 227° Southwest 338 389 19,200 1,210 Climbing Salt Lake Center
Thu 03:31:29 PM 45.3361 -112.0381 226° Southwest 347 399 20,500 1,113 Climbing Salt Lake Center
Thu 03:32:31 PM 45.2642 -112.1472 227° Southwest 355 409 21,500 968 Climbing Salt Lake Center
Thu 03:33:33 PM 45.1878 -112.2622 227° Southwest 358 412 22,500 871 Climbing Salt Lake Center
Thu 03:34:35 PM 45.1203 -112.3628 226° Southwest 365 420 23,300 871 Climbing Salt Lake Center
Thu 03:35:37 PM 45.0414 -112.4806 227° Southwest 368 423 24,300 726 Climbing Salt Lake Center
Thu 03:36:39 PM 44.9728 -112.5828 227° Southwest 373 429 24,800 677 Climbing Salt Lake Center
Thu 03:37:41 PM 44.8897 -112.7053 226° Southwest 382 440 25,700 629 Climbing Salt Lake Center
Thu 03:38:43 PM 44.8186 -112.8092 226° Southwest 385 443 26,100 581 Climbing Salt Lake Center
Thu 03:39:45 PM 44.7333 -112.9350 226° Southwest 395 455 26,900 677 Climbing Salt Lake Center
Thu 03:40:47 PM 44.6589 -113.0425 226° Southwest 399 459 27,500 581 Climbing Salt Lake Center
Thu 03:41:49 PM 44.5722 -113.1675 226° Southwest 401 461 28,100 432 Climbing Salt Lake Center
Thu 03:42:52 PM 44.4978 -113.2767 226° Southwest 403 464 28,400 480 Climbing Salt Lake Center
Thu 03:43:54 PM 44.4086 -113.4033 225° Southwest 409 471 29,100 435 Climbing Salt Lake Center
Thu 03:44:56 PM 44.3322 -113.5131 226° Southwest 411 473 29,300 290 Climbing Salt Lake Center
Thu 03:45:58 PM 44.2550 -113.6225 225° Southwest 413 475 29,700 435 Climbing Salt Lake Center
Thu 03:47:00 PM 44.1642 -113.7525 226° Southwest 417 480 30,200 435 Climbing Salt Lake Center
Thu 03:48:02 PM 44.0892 -113.8636 227° Southwest 415 478 30,600 484 Climbing Salt Lake Center
Thu 03:49:04 PM 43.9917 -113.9967 224° Southwest 419 482 31,200 532 Climbing Salt Lake Center
Thu 03:50:06 PM 43.9100 -114.1169 227° Southwest 413 475 31,700 387 Climbing Salt Lake Center
Thu 03:51:08 PM 43.8311 -114.2231 224° Southwest 410 472 32,000 145 Climbing Salt Lake Center
Thu 03:52:10 PM 43.7456 -114.3411 225° Southwest 416 479 32,000  Level Salt Lake Center
Thu 03:53:12 PM 43.6583 -114.4644 226° Southwest 423 487 32,000  Level Salt Lake Center
Thu 03:54:14 PM 43.5781 -114.5739 225° Southwest 425 489 32,000  Level Salt Lake Center
Thu 03:55:16 PM 43.4858 -114.7031 225° Southwest 425 489 32,000  Level Salt Lake Center
Thu 03:56:18 PM 43.3972 -114.8228 224° Southwest 425 489 32,000  Level Salt Lake Center
Thu 03:57:20 PM 43.3106 -114.9414 225° Southwest 423 487 32,000  Level Salt Lake Center
Thu 03:58:22 PM 43.2297 -115.0503 224° Southwest 423 487 32,000  Level Salt Lake Center
Thu 03:59:25 PM 43.1419 -115.1686 225° Southwest 421 484 32,000  Level Salt Lake Center
Thu 04:00:27 PM 43.0536 -115.2869 224° Southwest 423 487 32,000  Level Salt Lake Center
Thu 04:01:29 PM 42.9656 -115.4039 224° Southwest 424 488 32,000  Level Salt Lake Center
Thu 04:02:31 PM 42.8764 -115.5217 224° Southwest 426 490 32,000  Level Salt Lake Center
Thu 04:03:33 PM 42.7950 -115.6314 225° Southwest 424 488 32,000  Level Salt Lake Center
Thu 04:04:35 PM 42.7064 -115.7483 224° Southwest 425 489 32,000  Level Salt Lake Center
Thu 04:05:37 PM 42.6178 -115.8658 224° Southwest 425 489 32,000  Level Salt Lake Center
Thu 04:06:39 PM 42.5289 -115.9819 224° Southwest 423 487 32,000  Level Salt Lake Center
Thu 04:07:41 PM 42.4406 -116.0981 224° Southwest 423 487 32,000  Level Salt Lake Center
Thu 04:08:43 PM 42.3517 -116.2136 224° Southwest 424 488 32,000  Level Salt Lake Center
Thu 04:09:45 PM 42.2631 -116.3283 224° Southwest 423 487 32,000  Level Salt Lake Center
Thu 04:10:47 PM 42.1808 -116.4344 224° Southwest 423 487 32,000  Level Salt Lake Center
Thu 04:11:49 PM 42.0922 -116.5486 224° Southwest 421 484 32,000  Level Salt Lake Center
Thu 04:12:51 PM 42.0083 -116.6558 224° Southwest 423 487 32,000  Level Salt Lake Center
Thu 04:13:54 PM 41.9128 -116.7781 224° Southwest 425 489 32,000  Level Salt Lake Center
Thu 04:14:55 PM 41.8314 -116.8822 224° Southwest 424 488 32,000  Level Salt Lake Center
Thu 04:15:57 PM 41.7367 -117.0025 223° Southwest 421 484 32,000  Level Salt Lake Center
Thu 04:17:00 PM 41.6553 -117.1047 223° Southwest 420 483 32,000  Level Salt Lake Center
Thu 04:18:02 PM 41.5592 -117.2256 223° Southwest 423 487 32,000  Level Salt Lake Center
Thu 04:19:04 PM 41.4778 -117.3283 223° Southwest 423 487 32,000  Level Salt Lake Center
Thu 04:20:06 PM 41.3811 -117.4481 223° Southwest 425 489 32,000  Level Salt Lake Center
Thu 04:21:08 PM 41.2992 -117.5492 223° Southwest 423 487 32,000  Level Salt Lake Center
Thu 04:22:10 PM 41.2036 -117.6672 223° Southwest 421 484 32,000  Level Salt Lake Center
Thu 04:23:12 PM 41.1217 -117.7681 223° Southwest 421 484 32,000  Level Salt Lake Center
Thu 04:24:14 PM 41.0397 -117.8683 223° Southwest 422 486 32,000  Level Salt Lake Center
Thu 04:25:16 PM 40.9439 -117.9856 223° Southwest 421 484 32,000  Level Salt Lake Center
Thu 04:26:18 PM 40.8617 -118.0861 223° Southwest 421 484 32,000  Level Salt Lake Center
Thu 04:27:20 PM 40.7644 -118.2019 222° Southwest 423 487 32,000  Level Salt Lake Center
Thu 04:28:22 PM 40.6825 -118.3017 223° Southwest 421 484 32,000  Level Salt Lake Center
Thu 04:29:24 PM 40.5864 -118.4161 222° Southwest 418 481 32,000  Level Salt Lake Center
Thu 04:30:26 PM 40.5042 -118.5144 222° Southwest 418 481 32,000  Level Salt Lake Center
Thu 04:31:28 PM 40.4094 -118.6286 223° Southwest 416 479 32,000  Level Salt Lake Center
Thu 04:32:30 PM 40.3458 -118.7467 235° Southwest 419 482 32,000  Level Salt Lake Center
Thu 04:33:33 PM 40.2897 -118.8969 244° Southwest 413 475 32,000  Level Salt Lake Center
Thu 04:34:38 PM 40.2406 -119.0325 245° Southwest 412 474 32,000  Level Oakland Center
Thu 04:35:39 PM 40.1897 -119.1661 244° Southwest 412 474 32,000  Level Oakland Center
Thu 04:36:41 PM 40.1294 -119.3264 244° Southwest 411 473 32,000  Level Oakland Center
Thu 04:37:43 PM 40.0794 -119.4600 244° Southwest 412 474 32,000  Level Oakland Center
Thu 04:38:44 PM 40.0289 -119.5931 244° Southwest 412 474 32,000  Level Oakland Center
Thu 04:39:46 PM 39.9786 -119.7267 244° Southwest 412 474 32,000  Level Oakland Center
Thu 04:40:47 PM 39.9292 -119.8603 244° Southwest 411 473 32,000  Level Oakland Center
Thu 04:41:49 PM 39.8775 -119.9936 243° Southwest 413 475 32,000  Level Oakland Center
Thu 04:42:51 PM 39.8244 -120.1339 244° Southwest 415 478 32,000  Level Oakland Center
Thu 04:43:52 PM 39.7725 -120.2664 243° Southwest 412 474 32,000  Level Oakland Center
Thu 04:44:54 PM 39.7214 -120.3981 243° Southwest 409 471 32,000  Level Oakland Center
Thu 04:45:56 PM 39.6597 -120.5536 243° Southwest 406 467 32,000  Level Oakland Center
Thu 04:46:57 PM 39.6100 -120.6839 244° Southwest 403 464 32,000  Level Oakland Center
Thu 04:47:59 PM 39.5419 -120.7972 232° Southwest 401 461 32,000  Level Oakland Center
Thu 04:49:01 PM 39.4686 -120.9044 228° Southwest 401 461 32,000  Level Oakland Center
Thu 04:50:02 PM 39.3961 -121.0117 229° Southwest 397 457 32,000  Level Oakland Center
Thu 04:51:04 PM 39.3228 -121.1169 228° Southwest 396 456 32,000  Level Oakland Center
Thu 04:52:06 PM 39.2494 -121.2236 228° Southwest 398 458 32,000  Level Oakland Center
Thu 04:53:07 PM 39.1622 -121.3506 228° Southwest 396 456 32,000  Level Oakland Center
Thu 04:54:09 PM 39.0889 -121.4556 228° Southwest 396 456 32,000  Level Oakland Center
Thu 04:55:11 PM 39.0153 -121.5603 228° Southwest 396 456 32,000  Level Oakland Center
Thu 04:56:13 PM 38.9422 -121.6642 228° Southwest 394 453 32,000  Level Oakland Center
Thu 04:57:14 PM 38.8686 -121.7683 228° Southwest 395 455 32,000  Level Oakland Center
Thu 04:58:16 PM 38.7956 -121.8719 228° Southwest 395 455 32,000  Level Oakland Center
Thu 04:59:18 PM 38.7078 -121.9953 228° Southwest 393 452 32,000  Level Oakland Center
Thu 05:00:20 PM 38.6425 -122.0883 228° Southwest 392 451 32,000 -629 Level Oakland Center
Thu 05:01:22 PM 38.5669 -122.1917 227° Southwest 398 458 30,700 -1,902 Descending Oakland Center
Thu 05:02:23 PM 38.4867 -122.3031 227° Southwest 422 486 28,100 -3,122 Descending Oakland Center
Thu 05:03:25 PM 38.3619 -122.3872 208° Southwest 424 488 24,300 -3,387 Descending Oakland Center
Thu 05:04:27 PM 38.2619 -122.4494 206° Southwest 408 470 21,100 -3,097 Descending Oakland Center
Thu 05:05:29 PM 38.1647 -122.5092 206° Southwest 395 455 17,900 -3,122 Descending Oakland Center
Thu 05:06:30 PM 38.0731 -122.5669 206° Southwest 375 432 14,700 -3,122 Descending Oakland Center
Thu 05:07:32 PM 37.9853 -122.6211 206° Southwest 361 415 11,500 -1,839 Descending Oakland Center
Thu 05:08:34 PM 37.8831 -122.6475 192° South 341 392 10,900 -290 Descending Oakland Center
Thu 05:09:36 PM 37.8094 -122.5758 142° Southeast 341 392 10,900  Level Oakland Center
Thu 05:10:38 PM 37.7381 -122.5008 140° Southeast 337 388 10,900  Level Oakland Center
Thu 05:11:39 PM 37.6828 -122.4425 140° Southeast 272 313 10,900  Level Oakland Center
Thu 05:12:41 PM 37.6197 -122.3753 140° Southeast 252 290 10,900 -629 Level Oakland Center
Thu 05:13:43 PM 37.5617 -122.3331 150° Southeast 243 280 9,600 -1,306 Descending Oakland Center
Thu 05:14:45 PM 37.5011 -122.2933 153° Southeast 244 281 8,200 -1,171 Descending Oakland Center
Thu 05:15:46 PM 37.4431 -122.2531 151° Southeast 240 276 7,200 -1,220 Descending Oakland Center
Thu 05:16:48 PM 37.4311 -122.1697 100° East 242 278 5,700 -1,161 Descending Oakland Center
Thu 05:17:50 PM 37.4853 -122.1497 16° North 230 265 4,800 -1,073 Descending Oakland Center
Thu 05:18:51 PM 37.5372 -122.1900 328° Northwest 194 223 3,500 -1,122 Descending Oakland Center
Thu 05:19:53 PM 37.5608 -122.2386 302° West 176 203 2,500 -968 Descending Oakland Center
Thu 05:20:55 PM 37.5800 -122.2842 298° West 159 183 1,500 -871 Descending Oakland Center
Thu 05:21:57 PM 37.5972 -122.3253 298° West 145 167 700 -634 Descending Oakland Center
Thu 05:22:58 PM 37.6169 -122.3703 299° West 140 161 200 -492 Descending Oakland Center

Login

Don't have an account? Register now (free) for customized features, flight alerts, and more!